Estación Meteorológica Peña el Pijo (Robertgarden) [ 12/10/18 11:18:44 CET ]

Fecha Hora Presion(HPa) Temp (°C) Humedad % Rocio (°C) Viento ( m/s) Direccion Lluvia 1Hora(mm) Lluvia 24H(mm) LLuvia Total(mm)
2018-Aug-14 01:01:42 1010.500 18.1 55 8.8         287.49
2018-Aug-14 02:01:51 1010.500 17.8 57 9.1         287.49
2018-Aug-14 03:01:25 1010.500 17.3 59 9.2         287.49
2018-Aug-14 04:01:23 1010.600 17.6 61 10.0         287.49
2018-Aug-14 05:01:20 1010.400 17.3 63 10.2         287.49
2018-Aug-14 06:01:18 1010.300 15.8 66 9.5         287.49
2018-Aug-14 07:01:56 1010.800 14.9 70 9.5         287.49
2018-Aug-14 08:02:09 1011.400 14.9 71 9.7         287.49
2018-Aug-14 09:01:46 1011.700 19.5 63 12.2         287.49
2018-Aug-14 10:01:46 1011.400 26.3 48 14.4         287.49
2018-Aug-14 11:01:39 1011.600 31.8 33 13.4         287.49
2018-Aug-14 12:01:49 1011.700 33.9 28 12.7         287.49
2018-Aug-14 13:01:47 1011.800 34.5 26 12.0         287.49
2018-Aug-14 14:01:46 1011.300 30.3 30 10.8         287.49
2018-Aug-14 15:01:42 1011.000 34.6 27 12.7         287.49
2018-Aug-14 16:01:33 1011.000 36.7 24 12.6         287.49
2018-Aug-14 17:01:45 1010.600 34.9 26 12.3         287.49
2018-Aug-14 18:01:42 1010.400 31.5 32 12.7         287.49
2018-Aug-14 19:01:39 1010.400 28.8 40 13.9         287.49
2018-Aug-14 20:01:28 1010.800 27.2 52 16.5         287.49
2018-Aug-14 21:01:56 1011.000 24.8 61 16.8 0.7 S     287.49
2018-Aug-14 22:01:53 1011.400 22.8 65 15.9         287.49
2018-Aug-14 23:01:53 1012.300 20.8 70 15.1         287.49

Temperatura Máxima:36°    Temperatura Mínima:14°
Presión Máxima:1012.300 Hpa    Presión Mínima:1010.300 Hpa


Volver